SondeTracker

Meteorological Radiosondes Database

Operations

Sounding was ended - last measurement: 2022-12-07 01:00:13z

MAP
About Radiosonde

Number: D22041597 (22041597)

Launch Site: Salt Lake City [UT] (US)

Type: DFM17

AUX: NO

Frequency: 405.010 MHz

Max Speed: 152 km/h at 33452 m

Average Speed: 76.88 km/h

Max Altitude: 33452 m

Average Ascent Speed: 4.68 m/s

Average Descent Speed: 12.59 m/s

Status: UNKNOWN

Status Changes
Launch Site Type AUX Frequency Status Finder Landing Point Description Changes made by
APRS Statistics

Received Frames: 118

First Frame [UTC]: 2022-12-06 23:07:36z

Last Frame [UTC]: 2022-12-07 01:00:13z

Receivers: N7ZDX-1, N7ZDX-2

Flight Time: 01:52:37 h

Distance From First Measurement: 132.92 km

Nearest City: Evanston [WY] (US) [68.17 km]

Nearest Hunter: [0.00 km]

Ground Altitude: 3306 m

Distance from QTH: 0.00 km

APRS Data
Receiver Number Date/Time [UTC] φ λ Course [°] Speed [km/h] Altitude [m] Description
N7ZDX-1D220415972022-12-07 01:00:1340.8367-110.37710514331513Clb=-28.5m/s t=-51.0C h=-1.0% p=-1.0hPa 405.010 MHz Type=DFM17 ser=22041597 Radiosonde
N7ZDX-1D220415972022-12-07 00:59:0140.8381-110.38310410931954Clb=-32.7m/s t=-51.5C h=-1.0% p=-1.0hPa 405.010 MHz Type=DFM17 ser=22041597 Radiosonde
N7ZDX-1D220415972022-12-07 00:57:3940.8357-110.419215233452Clb=0.5m/s t=-51.0C h=-1.0% p=-1.0hPa 405.010 MHz Type=DFM17 ser=22041597 Radiosonde
N7ZDX-1D220415972022-12-07 00:56:1740.832-110.4378113333118Clb=7.3m/s t=-51.1C h=-1.0% p=-1.0hPa 405.010 MHz Type=DFM17 ser=22041597 Radiosonde
N7ZDX-1D220415972022-12-07 00:54:5540.8287-110.4646612632693Clb=3.6m/s t=-50.3C h=-1.0% p=-1.0hPa 405.010 MHz Type=DFM17 ser=22041597 Radiosonde
N7ZDX-1D220415972022-12-07 00:53:3040.8268-110.4917912832319Clb=6.3m/s t=-52.9C h=-1.0% p=-1.0hPa 405.010 MHz Type=DFM17 ser=22041597 Radiosonde
N7ZDX-1D220415972022-12-07 00:51:5940.8301-110.5119511732026Clb=3.6m/s t=-53.2C h=-1.0% p=-1.0hPa 405.010 MHz Type=DFM17 ser=22041597 Radiosonde
N7ZDX-1D220415972022-12-07 00:50:2840.8363-110.53510412831776Clb=6.2m/s t=-52.6C h=-1.0% p=-1.0hPa 405.010 MHz Type=DFM17 ser=22041597 Radiosonde
N7ZDX-1D220415972022-12-07 00:48:5840.8403-110.55910811331484Clb=7.0m/s t=-55.2C h=-1.0% p=-1.0hPa 405.010 MHz Type=DFM17 ser=22041597 Radiosonde
N7ZDX-1D220415972022-12-07 00:47:2740.8441-110.581078931118Clb=5.5m/s t=-55.3C h=-1.0% p=-1.0hPa 405.010 MHz Type=DFM17 ser=22041597 Radiosonde
N7ZDX-1D220415972022-12-07 00:45:5040.848-110.610012630698Clb=5.3m/s t=-54.3C h=-1.0% p=-1.0hPa 405.010 MHz Type=DFM17 ser=22041597 Radiosonde
N7ZDX-1D220415972022-12-07 00:44:1940.8517-110.6218612230261Clb=4.1m/s t=-53.8C h=-1.0% p=-1.0hPa 405.010 MHz Type=DFM17 ser=22041597 Radiosonde
N7ZDX-1D220415972022-12-07 00:43:1340.8521-110.643968029863Clb=4.9m/s t=-54.0C h=-1.0% p=-1.0hPa 405.010 MHz Type=DFM17 ser=22041597 Radiosonde
N7ZDX-1D220415972022-12-07 00:42:1540.8524-110.661828729505Clb=6.4m/s t=-54.4C h=-1.0% p=-1.0hPa 405.010 MHz Type=DFM17 ser=22041597 Radiosonde
N7ZDX-1D220415972022-12-07 00:41:5440.8504-110.677578029171Clb=6.7m/s t=-53.8C h=-1.0% p=-1.0hPa 405.010 MHz Type=DFM17 ser=22041597 Radiosonde
N7ZDX-1D220415972022-12-07 00:41:3840.8519-110.69310611328817Clb=4.9m/s t=-55.5C h=-1.0% p=-1.0hPa 405.010 MHz Type=DFM17 ser=22041597 Radiosonde
N7ZDX-1D220415972022-12-07 00:41:3140.8552-110.709855428464Clb=5.9m/s t=-55.3C h=-1.0% p=-1.0hPa 405.010 MHz Type=DFM17 ser=22041597 Radiosonde
N7ZDX-1D220415972022-12-07 00:41:2840.8584-110.7221068128132Clb=4.3m/s t=-57.6C h=-1.0% p=-1.0hPa 405.010 MHz Type=DFM17 ser=22041597 Radiosonde
N7ZDX-1D220415972022-12-07 00:41:2440.8617-110.7341476927775Clb=6.0m/s t=-57.6C h=-1.0% p=-1.0hPa 405.010 MHz Type=DFM17 ser=22041597 Radiosonde
N7ZDX-1D220415972022-12-07 00:41:1340.8677-110.7451145627395Clb=6.9m/s t=-59.5C h=-1.0% p=-1.0hPa 405.010 MHz Type=DFM17 ser=22041597 Radiosonde
N7ZDX-1D220415972022-12-07 00:39:4140.87-110.754933327011Clb=6.6m/s t=-57.8C h=-1.0% p=-1.0hPa 405.010 MHz Type=DFM17 ser=22041597 Radiosonde
N7ZDX-1D220415972022-12-07 00:38:0840.8725-110.7621223926660Clb=3.5m/s t=-57.7C h=-1.0% p=-1.0hPa 405.010 MHz Type=DFM17 ser=22041597 Radiosonde
N7ZDX-1D220415972022-12-07 00:36:2540.8774-110.7741205626337Clb=4.7m/s t=-59.5C h=-1.0% p=-1.0hPa 405.010 MHz Type=DFM17 ser=22041597 Radiosonde
N7ZDX-1D220415972022-12-07 00:34:4840.881-110.785966325994Clb=4.9m/s t=-59.5C h=-1.0% p=-1.0hPa 405.010 MHz Type=DFM17 ser=22041597 Radiosonde
N7ZDX-1D220415972022-12-07 00:33:0840.8863-110.7931375725631Clb=6.8m/s t=-59.0C h=-1.0% p=-1.0hPa 405.010 MHz Type=DFM17 ser=22041597 Radiosonde
N7ZDX-1D220415972022-12-07 00:31:1940.8918-110.8021405925263Clb=5.0m/s t=-59.2C h=-1.0% p=-1.0hPa 405.010 MHz Type=DFM17 ser=22041597 Radiosonde
N7ZDX-1D220415972022-12-07 00:29:3740.8957-110.813937224906Clb=5.6m/s t=-59.0C h=-1.0% p=-1.0hPa 405.010 MHz Type=DFM17 ser=22041597 Radiosonde
N7ZDX-1D220415972022-12-07 00:27:5840.8971-110.823864324549Clb=5.1m/s t=-56.2C h=-1.0% p=-1.0hPa 405.010 MHz Type=DFM17 ser=22041597 Radiosonde
N7ZDX-2D220415972022-12-07 00:27:4140.9171-110.8641034422993Clb=5.5m/s t=-59.1C h=-1.0% p=-1.0hPa 405.010 MHz Type=DFM17 ser=22041597 Radiosonde
N7ZDX-1D220415972022-12-07 00:27:2940.9176-110.8661113522936Clb=4.6m/s t=-59.0C h=-1.0% p=-1.0hPa 405.010 MHz Type=DFM17 ser=22041597 Radiosonde
N7ZDX-2D220415972022-12-07 00:27:0040.9194-110.8731143522681Clb=3.8m/s t=-58.4C h=-1.0% p=-1.0hPa 405.010 MHz Type=DFM17 ser=22041597 Radiosonde
N7ZDX-1D220415972022-12-07 00:26:5940.9195-110.875894322631Clb=6.4m/s t=-58.4C h=-1.0% p=-1.0hPa 405.010 MHz Type=DFM17 ser=22041597 Radiosonde
N7ZDX-2D220415972022-12-07 00:26:5540.9202-110.883963522339Clb=5.3m/s t=-57.7C h=-1.0% p=-1.0hPa 405.010 MHz Type=DFM17 ser=22041597 Radiosonde
N7ZDX-1D220415972022-12-07 00:26:4240.9203-110.8841044322313Clb=4.9m/s t=-57.6C h=-1.0% p=-1.0hPa 405.010 MHz Type=DFM17 ser=22041597 Radiosonde
N7ZDX-2D220415972022-12-07 00:25:1940.9214-110.8911084422036Clb=4.8m/s t=-57.0C h=-1.0% p=-1.0hPa 405.010 MHz Type=DFM17 ser=22041597 Radiosonde
N7ZDX-1D220415972022-12-07 00:25:0040.922-110.8931165921977Clb=4.9m/s t=-57.0C h=-1.0% p=-1.0hPa 405.010 MHz Type=DFM17 ser=22041597 Radiosonde
N7ZDX-2D220415972022-12-07 00:23:3340.9252-110.902965721695Clb=4.9m/s t=-58.2C h=-1.0% p=-1.0hPa 405.010 MHz Type=DFM17 ser=22041597 Radiosonde
N7ZDX-1D220415972022-12-07 00:23:1440.9257-110.9041116121647Clb=5.7m/s t=-58.6C h=-1.0% p=-1.0hPa 405.010 MHz Type=DFM17 ser=22041597 Radiosonde
N7ZDX-2D220415972022-12-07 00:21:4640.9277-110.9111104421378Clb=5.3m/s t=-58.4C h=-1.0% p=-1.0hPa 405.010 MHz Type=DFM17 ser=22041597 Radiosonde
N7ZDX-1D220415972022-12-07 00:21:2840.9281-110.9121015421324Clb=5.1m/s t=-58.1C h=-1.0% p=-1.0hPa 405.010 MHz Type=DFM17 ser=22041597 Radiosonde
N7ZDX-2D220415972022-12-07 00:20:0340.9306-110.9191155421092Clb=4.9m/s t=-58.9C h=-1.0% p=-1.0hPa 405.010 MHz Type=DFM17 ser=22041597 Radiosonde
N7ZDX-1D220415972022-12-07 00:19:4440.9319-110.9221315421023Clb=4.5m/s t=-59.5C h=-1.0% p=-1.0hPa 405.010 MHz Type=DFM17 ser=22041597 Radiosonde
N7ZDX-2D220415972022-12-07 00:18:1740.9362-110.9321229820807Clb=3.6m/s t=-60.8C h=-1.0% p=-1.0hPa 405.009 MHz Type=DFM17 ser=22041597 Radiosonde
N7ZDX-1D220415972022-12-07 00:17:5940.9371-110.9341148120766Clb=6.0m/s t=-60.8C h=-1.0% p=-1.0hPa 405.010 MHz Type=DFM17 ser=22041597 Radiosonde
N7ZDX-2D220415972022-12-07 00:16:2940.9405-110.949958720505Clb=5.7m/s t=-63.0C h=-1.0% p=-1.0hPa 405.010 MHz Type=DFM17 ser=22041597 Radiosonde
N7ZDX-1D220415972022-12-07 00:16:1040.9407-110.952998920446Clb=5.7m/s t=-63.2C h=-1.0% p=-1.0hPa 405.010 MHz Type=DFM17 ser=22041597 Radiosonde
N7ZDX-2D220415972022-12-07 00:14:4540.9396-110.963697020175Clb=6.0m/s t=-62.1C h=-1.0% p=-1.0hPa 405.010 MHz Type=DFM17 ser=22041597 Radiosonde
N7ZDX-1D220415972022-12-07 00:14:2940.9392-110.966706720124Clb=5.8m/s t=-61.9C h=-1.0% p=-1.0hPa 405.010 MHz Type=DFM17 ser=22041597 Radiosonde
N7ZDX-2D220415972022-12-07 00:13:0240.9382-110.975855219874Clb=4.4m/s t=-61.7C h=-1.0% p=-1.0hPa 405.010 MHz Type=DFM17 ser=22041597 Radiosonde
N7ZDX-1D220415972022-12-07 00:12:4340.9383-110.977966319832Clb=3.9m/s t=-61.7C h=-1.0% p=-1.0hPa 405.010 MHz Type=DFM17 ser=22041597 Radiosonde
N7ZDX-2D220415972022-12-07 00:11:5140.9404-110.9871207419586Clb=5.0m/s t=-62.2C h=-1.0% p=-1.0hPa 405.010 MHz Type=DFM17 ser=22041597 Radiosonde
N7ZDX-1D220415972022-12-07 00:11:4140.9412-110.991108019528Clb=6.5m/s t=-61.9C h=-1.0% p=-1.0hPa 405.010 MHz Type=DFM17 ser=22041597 Radiosonde
N7ZDX-2D220415972022-12-07 00:10:5540.9426-111.001978719269Clb=5.7m/s t=-61.1C h=-1.0% p=-1.0hPa 405.009 MHz Type=DFM17 ser=22041597 Radiosonde
N7ZDX-1D220415972022-12-07 00:10:5140.9429-111.004948119220Clb=5.7m/s t=-61.6C h=-1.0% p=-1.0hPa 405.010 MHz Type=DFM17 ser=22041597 Radiosonde
N7ZDX-2D220415972022-12-07 00:10:2140.9427-111.018768118970Clb=5.8m/s t=-62.0C h=-1.0% p=-1.0hPa 405.009 MHz Type=DFM17 ser=22041597 Radiosonde
N7ZDX-1D220415972022-12-07 00:10:1140.9425-111.02918018927Clb=5.0m/s t=-62.1C h=-1.0% p=-1.0hPa 405.010 MHz Type=DFM17 ser=22041597 Radiosonde
N7ZDX-2D220415972022-12-07 00:09:5440.9402-111.033807218686Clb=4.1m/s t=-61.6C h=-1.0% p=-1.0hPa 405.009 MHz Type=DFM17 ser=22041597 Radiosonde
N7ZDX-1D220415972022-12-07 00:09:5040.9397-111.036797418634Clb=5.9m/s t=-61.4C h=-1.0% p=-1.0hPa 405.010 MHz Type=DFM17 ser=22041597 Radiosonde
N7ZDX-1D220415972022-12-07 00:09:4640.9383-111.051756718366Clb=4.2m/s t=-61.5C h=-1.0% p=-1.0hPa 405.010 MHz Type=DFM17 ser=22041597 Radiosonde
N7ZDX-1D220415972022-12-07 00:09:4240.9361-111.066757818105Clb=5.0m/s t=-62.3C h=-1.0% p=-1.0hPa 405.010 MHz Type=DFM17 ser=22041597 Radiosonde
N7ZDX-1D220415972022-12-07 00:09:1840.935-111.08927217834Clb=5.6m/s t=-62.4C h=-1.0% p=-1.0hPa 405.010 MHz Type=DFM17 ser=22041597 Radiosonde
N7ZDX-1D220415972022-12-07 00:07:3940.9372-111.0941018017549Clb=5.1m/s t=-61.4C h=-1.0% p=-1.0hPa 405.010 MHz Type=DFM17 ser=22041597 Radiosonde
N7ZDX-1D220415972022-12-07 00:05:5540.9398-111.112969117271Clb=5.4m/s t=-61.5C h=-1.0% p=-1.0hPa 405.010 MHz Type=DFM17 ser=22041597 Radiosonde
N7ZDX-1D220415972022-12-07 00:04:1540.9409-111.129959316997Clb=5.4m/s t=-61.3C h=-1.0% p=-1.0hPa 405.010 MHz Type=DFM17 ser=22041597 Radiosonde
N7ZDX-1D220415972022-12-07 00:02:3840.9417-111.158810716707Clb=4.5m/s t=-61.4C h=-1.0% p=-1.0hPa 405.010 MHz Type=DFM17 ser=22041597 Radiosonde
N7ZDX-1D220415972022-12-07 00:00:5240.9407-111.1738111716405Clb=4.4m/s t=-60.8C h=-1.0% p=-1.0hPa 405.010 MHz Type=DFM17 ser=22041597 Radiosonde
N7ZDX-1D220415972022-12-06 23:59:3940.9365-111.195718916120Clb=4.8m/s t=-59.8C h=-1.0% p=-1.0hPa 405.010 MHz Type=DFM17 ser=22041597 Radiosonde
N7ZDX-1D220415972022-12-06 23:59:3640.9318-111.214709615849Clb=3.5m/s t=-58.8C h=-1.0% p=-1.0hPa 405.010 MHz Type=DFM17 ser=22041597 Radiosonde
N7ZDX-1D220415972022-12-06 23:59:1340.928-111.232748715577Clb=5.2m/s t=-58.1C h=-1.0% p=-1.0hPa 405.010 MHz Type=DFM17 ser=22041597 Radiosonde
N7ZDX-1D220415972022-12-06 23:58:5840.9244-111.25749415301Clb=3.7m/s t=-57.3C h=-1.0% p=-1.0hPa 405.010 MHz Type=DFM17 ser=22041597 Radiosonde
N7ZDX-1D220415972022-12-06 23:57:3740.9218-111.2698010415024Clb=3.7m/s t=-57.0C h=-1.0% p=-1.0hPa 405.010 MHz Type=DFM17 ser=22041597 Radiosonde
N7ZDX-1D220415972022-12-06 23:55:5240.9201-111.298711714761Clb=4.7m/s t=-56.1C h=-1.0% p=-1.0hPa 405.010 MHz Type=DFM17 ser=22041597 Radiosonde
N7ZDX-1D220415972022-12-06 23:54:1540.9176-111.3147911914512Clb=5.1m/s t=-56.4C h=-1.0% p=-1.0hPa 405.010 MHz Type=DFM17 ser=22041597 Radiosonde
N7ZDX-1D220415972022-12-06 23:52:3640.9134-111.3397012814248Clb=4.0m/s t=-56.5C h=-1.0% p=-1.0hPa 405.010 MHz Type=DFM17 ser=22041597 Radiosonde
N7ZDX-1D220415972022-12-06 23:51:2740.9066-111.3636513113986Clb=5.3m/s t=-56.1C h=-1.0% p=-1.0hPa 405.010 MHz Type=DFM17 ser=22041597 Radiosonde
N7ZDX-1D220415972022-12-06 23:50:5640.8986-111.3886812613735Clb=4.9m/s t=-54.8C h=-1.0% p=-1.0hPa 405.010 MHz Type=DFM17 ser=22041597 Radiosonde
N7ZDX-1D220415972022-12-06 23:50:5340.8927-111.417110713490Clb=3.6m/s t=-55.1C h=-1.0% p=-1.0hPa 405.010 MHz Type=DFM17 ser=22041597 Radiosonde
N7ZDX-1D220415972022-12-06 23:50:3540.8864-111.4326312013235Clb=3.8m/s t=-55.2C h=-1.0% p=-1.0hPa 405.010 MHz Type=DFM17 ser=22041597 Radiosonde
N7ZDX-1D220415972022-12-06 23:49:0140.8793-111.4537012212965Clb=4.4m/s t=-55.0C h=-1.0% p=-1.0hPa 405.010 MHz Type=DFM17 ser=22041597 Radiosonde
N7ZDX-1D220415972022-12-06 23:47:3340.8742-111.4777511512696Clb=5.0m/s t=-55.8C h=-1.0% p=-1.0hPa 405.010 MHz Type=DFM17 ser=22041597 Radiosonde
N7ZDX-1D220415972022-12-06 23:45:5340.8693-111.4987810612437Clb=2.9m/s t=-54.7C h=-1.0% p=-1.0hPa 405.010 MHz Type=DFM17 ser=22041597 Radiosonde
N7ZDX-1D220415972022-12-06 23:44:1940.8649-111.5197610612186Clb=4.7m/s t=-55.3C h=-1.0% p=-1.0hPa 405.010 MHz Type=DFM17 ser=22041597 Radiosonde
N7ZDX-1D220415972022-12-06 23:43:2740.8605-111.5396611511917Clb=3.4m/s t=-53.7C h=-1.0% p=-1.0hPa 405.010 MHz Type=DFM17 ser=22041597 Radiosonde
N7ZDX-1D220415972022-12-06 23:42:5940.8544-111.5626711711666Clb=4.5m/s t=-54.0C h=-1.0% p=-1.0hPa 405.010 MHz Type=DFM17 ser=22041597 Radiosonde
N7ZDX-1D220415972022-12-06 23:41:4540.849-111.581688911390Clb=3.1m/s t=-53.7C h=-1.0% p=-1.0hPa 405.010 MHz Type=DFM17 ser=22041597 Radiosonde
N7ZDX-1D220415972022-12-06 23:40:1340.8469-111.5997811511126Clb=4.3m/s t=-53.0C h=-1.0% p=-1.0hPa 405.010 MHz Type=DFM17 ser=22041597 Radiosonde
N7ZDX-1D220415972022-12-06 23:39:0940.842-111.626511110841Clb=2.4m/s t=-52.5C h=-1.0% p=-1.0hPa 405.010 MHz Type=DFM17 ser=22041597 Radiosonde
N7ZDX-1D220415972022-12-06 23:38:1540.835-111.64699410569Clb=3.7m/s t=-52.9C h=-1.0% p=-1.0hPa 405.010 MHz Type=DFM17 ser=22041597 Radiosonde
N7ZDX-1D220415972022-12-06 23:37:3540.8303-111.657678110328Clb=4.3m/s t=-52.2C h=-1.0% p=-1.0hPa 405.010 MHz Type=DFM17 ser=22041597 Radiosonde
N7ZDX-1D220415972022-12-06 23:36:0640.8258-111.672689110063Clb=2.9m/s t=-51.6C h=-1.0% p=-1.0hPa 405.010 MHz Type=DFM17 ser=22041597 Radiosonde
N7ZDX-1D220415972022-12-06 23:35:0440.8207-111.68972919803Clb=4.2m/s t=-50.3C h=-1.0% p=-1.0hPa 405.010 MHz Type=DFM17 ser=22041597 Radiosonde
N7ZDX-1D220415972022-12-06 23:34:0440.8156-111.70573879548Clb=6.6m/s t=-49.3C h=-1.0% p=-1.0hPa 405.010 MHz Type=DFM17 ser=22041597 Radiosonde
N7ZDX-1D220415972022-12-06 23:33:2440.8117-111.71971709291Clb=3.4m/s t=-48.5C h=-1.0% p=-1.0hPa 405.010 MHz Type=DFM17 ser=22041597 Radiosonde
N7ZDX-1D220415972022-12-06 23:32:0140.8089-111.73280579045Clb=4.7m/s t=-48.5C h=-1.0% p=-1.0hPa 405.010 MHz Type=DFM17 ser=22041597 Radiosonde
N7ZDX-1D220415972022-12-06 23:31:0040.8074-111.74279508808Clb=4.4m/s t=-47.6C h=-1.0% p=-1.0hPa 405.010 MHz Type=DFM17 ser=22041597 Radiosonde
N7ZDX-1D220415972022-12-06 23:29:5940.806-111.75166438574Clb=3.9m/s t=-46.8C h=-1.0% p=-1.0hPa 405.010 MHz Type=DFM17 ser=22041597 Radiosonde
N7ZDX-1D220415972022-12-06 23:29:0840.8055-111.76191468315Clb=5.9m/s t=-45.3C h=-1.0% p=-1.0hPa 405.010 MHz Type=DFM17 ser=22041597 Radiosonde
N7ZDX-1D220415972022-12-06 23:27:5740.805-111.77276637983Clb=8.1m/s t=-43.6C h=-1.0% p=-1.0hPa 405.010 MHz Type=DFM17 ser=22041597 Radiosonde
N7ZDX-1D220415972022-12-06 23:26:5640.8035-111.78477707706Clb=3.5m/s t=-43.5C h=-1.0% p=-1.0hPa 405.010 MHz Type=DFM17 ser=22041597 Radiosonde
N7ZDX-1D220415972022-12-06 23:25:5540.802-111.79991747461Clb=3.0m/s t=-42.1C h=-1.0% p=-1.0hPa 405.010 MHz Type=DFM17 ser=22041597 Radiosonde
N7ZDX-1D220415972022-12-06 23:25:0240.8-111.81567837196Clb=4.9m/s t=-40.1C h=-1.0% p=-1.0hPa 405.010 MHz Type=DFM17 ser=22041597 Radiosonde
N7ZDX-1D220415972022-12-06 23:23:5340.7963-111.83170806940Clb=4.9m/s t=-38.0C h=-1.0% p=-1.0hPa 405.010 MHz Type=DFM17 ser=22041597 Radiosonde
N7ZDX-1D220415972022-12-06 23:22:5240.7933-111.84571676689Clb=5.1m/s t=-36.1C h=-1.0% p=-1.0hPa 405.010 MHz Type=DFM17 ser=22041597 Radiosonde
N7ZDX-1D220415972022-12-06 23:21:5140.7902-111.85969696448Clb=3.6m/s t=-33.9C h=-1.0% p=-1.0hPa 405.010 MHz Type=DFM17 ser=22041597 Radiosonde
N7ZDX-1D220415972022-12-06 23:20:5240.7875-111.87177436172Clb=4.3m/s t=-31.8C h=-1.0% p=-1.0hPa 405.010 MHz Type=DFM17 ser=22041597 Radiosonde
N7ZDX-1D220415972022-12-06 23:19:4940.786-111.88175505890Clb=3.3m/s t=-29.4C h=-1.0% p=-1.0hPa 405.010 MHz Type=DFM17 ser=22041597 Radiosonde
N7ZDX-1D220415972022-12-06 23:18:4740.7844-111.88979355661Clb=3.1m/s t=-27.4C h=-1.0% p=-1.0hPa 405.010 MHz Type=DFM17 ser=22041597 Radiosonde
N7ZDX-1D220415972022-12-06 23:17:4640.7833-111.89777315410Clb=4.0m/s t=-25.3C h=-1.0% p=-1.0hPa 405.010 MHz Type=DFM17 ser=22041597 Radiosonde
N7ZDX-1D220415972022-12-06 23:16:4640.7822-111.90489335169Clb=3.9m/s t=-23.5C h=-1.0% p=-1.0hPa 405.010 MHz Type=DFM17 ser=22041597 Radiosonde
N7ZDX-1D220415972022-12-06 23:15:4440.7805-111.9172284894Clb=4.9m/s t=-21.9C h=-1.0% p=-1.0hPa 405.010 MHz Type=DFM17 ser=22041597 Radiosonde
N7ZDX-1D220415972022-12-06 23:14:4340.7793-111.91586224624Clb=3.7m/s t=-20.2C h=-1.0% p=-1.0hPa 405.010 MHz Type=DFM17 ser=22041597 Radiosonde
N7ZDX-1D220415972022-12-06 23:13:4240.7784-111.92273414343Clb=4.5m/s t=-19.5C h=-1.0% p=-1.0hPa 405.010 MHz Type=DFM17 ser=22041597 Radiosonde
N7ZDX-1D220415972022-12-06 23:12:4140.7772-111.92978394070Clb=6.1m/s t=-17.1C h=-1.0% p=-1.0hPa 405.010 MHz Type=DFM17 ser=22041597 Radiosonde
N7ZDX-1D220415972022-12-06 23:11:4040.7766-111.93562373772Clb=3.1m/s t=-15.6C h=-1.0% p=-1.0hPa 405.010 MHz Type=DFM17 ser=22041597 Radiosonde
N7ZDX-1D220415972022-12-06 23:10:3940.7754-111.94259193445Clb=5.1m/s t=-13.4C h=-1.0% p=-1.0hPa 405.010 MHz Type=DFM17 ser=22041597 Radiosonde
N7ZDX-1D220415972022-12-06 23:09:3840.7749-111.94787203157Clb=3.6m/s t=-11.8C h=-1.0% p=-1.0hPa 405.010 MHz Type=DFM17 ser=22041597 Radiosonde
N7ZDX-1D220415972022-12-06 23:08:3840.7743-111.95213092888Clb=7.3m/s t=-9.6C h=-1.0% p=-1.0hPa 405.010 MHz Type=DFM17 ser=22041597 Radiosonde
N7ZDX-1D220415972022-12-06 23:07:3640.7737-111.95412342573Clb=3.6m/s t=-6.6C h=-1.0% p=-1.0hPa 405.010 MHz Type=DFM17 ser=22041597 Radiosonde